SM4IVE-5 Odensbacken SE current weather conditions

sailwx.info

Wind from 271 at 2 knots gusting 10

Air temperature 25.0° C
Dewpoint 16.9° C

Last reported at 2020-Aug-06 15:00 UTC.
Time now 2020-Aug-06 15:31 UTC

Location: N 59°09' E 015°32'.
View on Google Maps.

See reports from other nearby stations

  
Tides and Currents Weather Stations Pressure Air Temp Water Temp Dewpoint Dewpoint Depression Visibility Wind Speed Wind Dir Waves Ship Positions
date/time (UTC)wind fromknots sea level pressurealtimeterstation pressurevisibilityair tempwater tempwave heightnotes
2020-Aug-06 15:00 271 2 gusting 10 25.0
2020-Aug-06 14:55 262 2 gusting 6 25.0
2020-Aug-06 14:50 360 1 gusting 8 25.0
2020-Aug-06 14:45 273 1 gusting 8 25.0
2020-Aug-06 14:40 258 3 gusting 8 25.0
2020-Aug-06 14:35 360 2 gusting 9 25.0
2020-Aug-06 14:30 360 4 gusting 10 25.0
2020-Aug-06 14:25 241 4 gusting 9 25.0
2020-Aug-06 14:20 261 5 gusting 9 25.0
2020-Aug-06 14:15 258 4 gusting 7 25.0
2020-Aug-06 14:10 218 1 gusting 6 25.0
2020-Aug-06 14:05 217 24.4
2020-Aug-06 14:00 206 2 gusting 9 24.4
2020-Aug-06 13:55 360 2 gusting 9 24.4
2020-Aug-06 13:50 360 3 gusting 8 25.0
2020-Aug-06 13:45 360 4 gusting 8 25.0
2020-Aug-06 13:40 360 2 gusting 7 24.4
2020-Aug-06 13:35 300 2 gusting 7 24.4
2020-Aug-06 13:30 360 2 gusting 6 24.4
2020-Aug-06 13:25 239 3 gusting 6 23.9
2020-Aug-06 13:20 238 2 gusting 6 23.9
2020-Aug-06 13:15 272 0 gusting 6 24.4
2020-Aug-06 13:10 238 2 gusting 12 24.4
2020-Aug-06 13:05 194 3 gusting 16 24.4
2020-Aug-06 13:00 257 5 gusting 16 24.4
2020-Aug-06 12:55 248 5 gusting 11 24.4
2020-Aug-06 12:50 184 4 gusting 11 24.4
2020-Aug-06 12:45 360 2 gusting 13 23.9
2020-Aug-06 12:40 257 6 gusting 13 23.9
2020-Aug-06 12:35 238 1 gusting 6 23.9
2020-Aug-06 12:30 360 2 gusting 6 23.3
2020-Aug-06 12:25 241 2 gusting 10 23.3
2020-Aug-06 12:20 223 5 gusting 10 23.3
2020-Aug-06 12:15 283 3 gusting 7 23.9
2020-Aug-06 12:10 207 3 gusting 6 23.3
2020-Aug-06 12:05 245 1 gusting 7 23.3
2020-Aug-06 12:00 271 2 gusting 7 23.9
2020-Aug-06 11:55 360 2 gusting 8 23.9
2020-Aug-06 11:50 360 4 gusting 8 23.9
2020-Aug-06 11:45 245 4 gusting 7 23.9
2020-Aug-06 11:40 242 2 gusting 8 23.9
2020-Aug-06 11:35 360 3 gusting 11 24.4
2020-Aug-06 11:30 360 4 gusting 11 23.9
2020-Aug-06 11:25 360 2 gusting 6 23.9
2020-Aug-06 11:20 360 3 gusting 10 23.3
2020-Aug-06 11:15 360 6 gusting 12 22.8
2020-Aug-06 11:10 238 6 gusting 12 23.3
2020-Aug-06 11:05 360 3 gusting 9 23.3
2020-Aug-06 11:00 296 3 gusting 9 23.3
2020-Aug-06 10:55 360 1 gusting 3 22.2
2020-Aug-06 10:50 360 1 gusting 6 21.7
2020-Aug-06 10:45 360 2 gusting 6 21.1
2020-Aug-06 10:40 360 2 gusting 7 21.1
2020-Aug-06 10:35 244 3 gusting 9 20.6
2020-Aug-06 10:30 250 5 gusting 9 20.6
2020-Aug-06 10:25 263 4 gusting 8 20.6
2020-Aug-06 10:20 207 1 gusting 5 20.6
2020-Aug-06 10:15 360 2 gusting 10 21.1
2020-Aug-06 10:10 360 1 gusting 7 21.1
2020-Aug-06 10:06 360 0 gusting 6 21.7
2020-Aug-06 10:00 221 0 gusting 5 21.1
2020-Aug-06 09:55 360 1 gusting 6 21.1
2020-Aug-06 09:50 208 0 gusting 6 21.1
2020-Aug-06 09:45 360 0 gusting 5 20.6
2020-Aug-06 09:40 360 0 gusting 5 19.4
2020-Aug-06 09:35 195 19.4
2020-Aug-06 09:30 360 18.9
2020-Aug-06 09:25 360 18.9
2020-Aug-06 09:20 360 18.9
2020-Aug-06 09:15 242 2 gusting 6 18.9
2020-Aug-06 09:10 360 0 gusting 3 18.9
2020-Aug-06 09:05 360 18.9
2020-Aug-06 09:00 221 0 gusting 4 18.9
2020-Aug-06 08:55 212 0 gusting 8 18.9
2020-Aug-06 08:50 223 1 gusting 8 18.9
2020-Aug-06 08:45 360 0 gusting 5 18.9
2020-Aug-06 08:40 222 0 gusting 5 19.4
2020-Aug-06 08:35 360 1 gusting 7 19.4
2020-Aug-06 07:45 196 2 gusting 9 18.9
2020-Aug-06 07:40 360 5 gusting 11 18.9
2020-Aug-06 07:35 360 1 gusting 9 18.9
2020-Aug-06 07:30 198 4 gusting 9 18.9
2020-Aug-06 07:25 360 1 gusting 7 18.9
2020-Aug-06 07:20 218 1 gusting 6 18.9
2020-Aug-06 07:15 241 1 gusting 8 18.9
2020-Aug-06 07:10 214 2 gusting 8 18.9
2020-Aug-06 07:05 360 3 gusting 8 18.9
2020-Aug-06 07:00 240 3 gusting 8 18.9
2020-Aug-06 06:55 360 3 gusting 6 18.9
2020-Aug-06 06:50 205 1 gusting 4 18.9
2020-Aug-06 06:45 205 0 gusting 4 18.3
2020-Aug-06 06:40 206 18.3
2020-Aug-06 06:35 205 2 gusting 6 17.8
2020-Aug-06 06:30 360 0 gusting 4 17.8
2020-Aug-06 06:25 360 2 gusting 4 17.8
2020-Aug-06 06:20 205 0 gusting 5 17.8
2020-Aug-06 06:15 360 1 gusting 5 17.8
2020-Aug-06 06:10 360 0 gusting 5 17.8
2020-Aug-06 06:05 360 0 gusting 5 17.8
2020-Aug-06 06:00 198 1 gusting 5 17.8
2020-Aug-06 05:55 360 1 gusting 5 17.8
2020-Aug-06 05:50 360 2 gusting 8 17.2
2020-Aug-06 05:45 360 2 gusting 8 17.2
2020-Aug-06 05:40 207 2 gusting 6 17.8
2020-Aug-06 05:35 360 1 gusting 4 17.8
2020-Aug-06 05:30 207 1 gusting 4 17.8
2020-Aug-06 05:25 360 0 gusting 4 17.2
2020-Aug-06 05:20 360 0 gusting 4 17.2
2020-Aug-06 05:15 242 1 gusting 4 17.2
2020-Aug-06 05:10 209 0 gusting 2 17.2
2020-Aug-06 05:06 209 0 gusting 4 17.2
2020-Aug-06 05:00 360 0 gusting 4 17.2
2020-Aug-06 04:55 360 1 gusting 5 17.2
2020-Aug-06 04:50 210 1 gusting 6 17.2
2020-Aug-06 04:45 213 1 gusting 6 17.2
2020-Aug-06 04:40 207 1 gusting 6 17.2
2020-Aug-06 04:35 199 2 gusting 6 16.7
2020-Aug-06 04:30 360 0 gusting 5 16.7
2020-Aug-06 04:25 198 2 gusting 5 16.7
2020-Aug-06 04:20 360 1 gusting 7 16.7
2020-Aug-06 04:15 196 2 gusting 7 16.7
2020-Aug-06 04:10 360 0 gusting 5 16.7
2020-Aug-06 04:06 198 1 gusting 5 16.7
2020-Aug-06 04:00 207 1 gusting 5 16.7
2020-Aug-06 03:55 206 0 gusting 4 16.7
2020-Aug-06 03:50 202 1 gusting 3 16.7
2020-Aug-06 03:45 198 0 gusting 4 16.7
2020-Aug-06 03:40 192 0 gusting 4 16.7
2020-Aug-06 03:35 193 0 gusting 2 16.7
2020-Aug-06 03:30 194 0 gusting 1 16.7
2020-Aug-06 03:25 194 16.7
2020-Aug-06 03:20 195 16.7
2020-Aug-06 03:15 195 0 gusting 4 16.7
2020-Aug-06 03:10 194 0 gusting 4 16.7
2020-Aug-06 03:06 195 0 gusting 3 16.7
2020-Aug-06 03:00 194 0 gusting 2 16.7
2020-Aug-06 02:55 190 0 gusting 2 16.1
2020-Aug-06 02:50 190 16.1
2020-Aug-06 02:45 190 0 gusting 3 16.1
2020-Aug-06 02:40 190 16.1
2020-Aug-06 02:35 182 0 gusting 2 16.1
2020-Aug-06 02:30 182 0 gusting 2 16.1
2020-Aug-06 02:25 182 16.1
2020-Aug-06 02:20 182 0 gusting 3 16.1
2020-Aug-06 02:15 183 16.1
2020-Aug-06 02:10 174 16.1
2020-Aug-06 02:05 173 0 gusting 2 16.1
2020-Aug-06 02:00 174 0 gusting 3 16.1
2020-Aug-06 01:55 181 0 gusting 3 16.1
2020-Aug-06 01:50 169 0 gusting 4 16.1
2020-Aug-06 01:45 182 0 gusting 4 16.1
2020-Aug-06 01:40 199 0 gusting 4 16.1
2020-Aug-06 01:35 192 1 gusting 6 16.1
2020-Aug-06 01:30 184 1 gusting 6 16.1
2020-Aug-06 01:25 190 1 gusting 4 16.1
2020-Aug-06 01:20 190 2 gusting 4 16.1
2020-Aug-06 01:15 174 0 gusting 5 16.1
2020-Aug-06 01:10 195 1 gusting 5 16.1
2020-Aug-06 01:05 186 0 gusting 5 16.1
2020-Aug-06 01:00 188 1 gusting 4 16.1
2020-Aug-06 00:55 192 1 gusting 5 16.1
2020-Aug-06 00:50 167 1 gusting 4 16.1
2020-Aug-06 00:45 190 0 gusting 5 16.1
2020-Aug-06 00:40 196 1 gusting 6 16.1
2020-Aug-06 00:35 191 1 gusting 8 16.1
2020-Aug-06 00:30 194 1 gusting 8 15.6
2020-Aug-06 00:25 190 1 gusting 7 15.6
2020-Aug-06 00:20 191 0 gusting 9 15.6
2020-Aug-06 00:15 182 3 gusting 9 15.6
2020-Aug-06 00:10 360 1 gusting 6 15.6
2020-Aug-06 00:05 180 1 gusting 6 15.6
2020-Aug-06 00:00 192 2 gusting 6 15.6
2020-Aug-05 23:55 189 2 gusting 9 15.6
2020-Aug-05 23:50 207 3 gusting 10 15.6
2020-Aug-05 23:45 187 3 gusting 10 15.6
2020-Aug-05 23:40 198 1 gusting 9 15.6
2020-Aug-05 23:35 192 2 gusting 9 15.6
2020-Aug-05 23:30 190 2 gusting 10 15.6
2020-Aug-05 23:25 177 2 gusting 7 15.6
2020-Aug-05 23:20 172 1 gusting 5 15.6
2020-Aug-05 23:15 191 0 gusting 10 15.6
2020-Aug-05 23:10 205 3 gusting 10 15.6
2020-Aug-05 23:05 171 2 gusting 7 15.6
2020-Aug-05 23:00 188 2 gusting 7 15.6
2020-Aug-05 22:55 209 2 gusting 10 15.6
2020-Aug-05 22:50 194 4 gusting 11 15.6
2020-Aug-05 22:45 194 2 gusting 9 15.6
2020-Aug-05 22:40 191 3 gusting 9 15.6
2020-Aug-05 22:35 360 1 gusting 8 15.6
2020-Aug-05 22:30 188 0 gusting 8 15.6
2020-Aug-05 22:25 200 1 gusting 6 15.6
2020-Aug-05 22:20 194 0 gusting 7 15.6
2020-Aug-05 22:15 186 1 gusting 8 15.6
2020-Aug-05 22:10 202 3 gusting 9 15.6
2020-Aug-05 22:05 198 1 gusting 9 15.6
2020-Aug-05 22:00 173 2 gusting 6 15.6
2020-Aug-05 21:55 360 2 gusting 8 15.6
2020-Aug-05 21:50 197 2 gusting 8 15.6
2020-Aug-05 21:45 191 2 gusting 9 15.6
2020-Aug-05 21:40 186 2 gusting 9 15.6
2020-Aug-05 21:35 190 2 gusting 6 15.6
2020-Aug-05 21:30 360 0 gusting 7 15.6
2020-Aug-05 21:25 188 2 gusting 13 15.6
2020-Aug-05 21:20 179 3 gusting 13 15.6
2020-Aug-05 21:15 196 0 gusting 10 15.6
2020-Aug-05 21:10 190 1 gusting 6 15.6
2020-Aug-05 21:05 195 2 gusting 7 15.6
2020-Aug-05 21:00 163 1 gusting 7 15.6
2020-Aug-05 20:55 207 1 gusting 8 15.6
2020-Aug-05 20:50 189 2 gusting 8 15.6
2020-Aug-05 20:45 192 1 gusting 8 15.0
2020-Aug-05 20:40 176 0 gusting 6 15.0
2020-Aug-05 20:35 202 2 gusting 6 15.0
2020-Aug-05 20:30 189 2 gusting 6 15.0
2020-Aug-05 20:25 196 1 gusting 8 15.0
2020-Aug-05 20:20 190 2 gusting 8 15.0
2020-Aug-05 20:15 167 0 gusting 8 15.0
2020-Aug-05 20:10 191 1 gusting 6 15.6
2020-Aug-05 20:06 164 1 gusting 10 15.6
2020-Aug-05 20:00 207 3 gusting 12 15.6
2020-Aug-05 19:55 178 3 gusting 12 16.1
2020-Aug-05 19:50 182 2 gusting 10 16.1
2020-Aug-05 19:45 188 4 gusting 10 16.1
2020-Aug-05 19:40 198 3 gusting 9 16.1
2020-Aug-05 19:35 196 2 gusting 8 16.1
2020-Aug-05 19:30 194 3 gusting 8 16.1
2020-Aug-05 19:25 185 1 gusting 7 16.1
2020-Aug-05 19:20 192 4 gusting 8 16.7
2020-Aug-05 19:15 180 3 gusting 10 16.7
2020-Aug-05 19:10 360 3 gusting 10 16.7
2020-Aug-05 19:06 185 4 gusting 10 16.1
2020-Aug-05 19:00 188 3 gusting 10 16.1
2020-Aug-05 18:55 184 3 gusting 10 16.1
2020-Aug-05 18:50 188 2 gusting 10 16.1
2020-Aug-05 18:45 186 2 gusting 8 16.1
2020-Aug-05 18:40 177 2 gusting 8 16.1
2020-Aug-05 18:35 179 0 gusting 6 16.1
2020-Aug-05 18:30 190 2 gusting 6 16.1
2020-Aug-05 18:25 188 1 gusting 6 16.1
2020-Aug-05 18:20 171 2 gusting 7 16.1
2020-Aug-05 18:15 200 0 gusting 9 16.1
2020-Aug-05 18:10 194 0 gusting 11 16.1
2020-Aug-05 18:05 186 2 gusting 11 16.1
2020-Aug-05 18:00 169 1 gusting 8 16.1
2020-Aug-05 17:55 178 2 gusting 6 16.1
2020-Aug-05 17:50 180 1 gusting 6 16.1
2020-Aug-05 17:45 172 2 gusting 6 16.1
2020-Aug-05 17:40 163 1 gusting 9 16.1
2020-Aug-05 17:35 129 3 gusting 7 16.1
2020-Aug-05 17:30 140 0 gusting 7 16.7
2020-Aug-05 17:25 199 0 gusting 7 16.7
2020-Aug-05 17:20 195 2 gusting 7 16.7
2020-Aug-05 17:15 182 1 gusting 12 16.7
2020-Aug-05 17:10 196 3 gusting 12 16.7
2020-Aug-05 17:06 192 3 gusting 10 16.7
2020-Aug-05 17:00 182 1 gusting 6 16.7
2020-Aug-05 16:55 178 1 gusting 8 16.7
2020-Aug-05 16:50 360 4 gusting 10 16.7
2020-Aug-05 16:45 187 3 gusting 10 16.7
2020-Aug-05 16:40 199 3 gusting 9 16.7
2020-Aug-05 16:35 197 1 gusting 5 16.7
2020-Aug-05 16:30 165 0 gusting 5 16.7
2020-Aug-05 16:25 202 1 gusting 8 16.7
2020-Aug-05 16:20 198 1 gusting 8 16.7
2020-Aug-05 16:15 191 1 gusting 8 16.7
2020-Aug-05 16:10 190 2 gusting 8 16.7
2020-Aug-05 16:06 185 0 gusting 6 16.7
2020-Aug-05 16:00 189 0 gusting 6 16.7
2020-Aug-05 15:55 360 2 gusting 9 16.7
2020-Aug-05 15:50 184 3 gusting 9 16.7
2020-Aug-05 15:45 196 0 gusting 9 16.7
2020-Aug-05 15:40 200 0 gusting 6 17.2
2020-Aug-05 15:35 177 1 gusting 6 17.2
2020-Aug-05 15:30 188 0 gusting 12 17.2
2020-Aug-05 15:25 186 1 gusting 6 17.2
2020-Aug-05 15:20 188 2 gusting 7 17.2
2020-Aug-05 15:15 200 3 gusting 13 17.2
2020-Aug-05 15:10 360 3 gusting 12 17.2
2020-Aug-05 15:05 171 1 gusting 6 17.2
2020-Aug-05 15:00 154 0 gusting 6 17.2
2020-Aug-05 14:55 161 2 gusting 10 17.2
2020-Aug-05 14:50 196 2 gusting 9 17.2
2020-Aug-05 14:45 179 2 gusting 11 17.2
2020-Aug-05 14:40 194 2 gusting 10 16.7
2020-Aug-05 14:35 183 2 gusting 10 16.7
2020-Aug-05 14:30 190 0 gusting 7 16.7
2020-Aug-05 14:25 179 0 gusting 6 16.7
2020-Aug-05 14:20 195 1 gusting 7 16.7
2020-Aug-05 14:15 184 1 gusting 7 16.7
2020-Aug-05 14:10 190 1 gusting 7 16.7
2020-Aug-05 14:06 146 2 gusting 7 16.1
2020-Aug-05 14:00 192 1 gusting 6 16.1
2020-Aug-05 13:55 360 1 gusting 6 16.1
2020-Aug-05 13:50 182 2 gusting 6 16.1
2020-Aug-05 13:45 192 2 gusting 6 16.1
2020-Aug-05 13:40 190 1 gusting 7 16.1
2020-Aug-05 13:35 187 2 gusting 7 16.1
2020-Aug-05 13:30 203 0 gusting 6 16.7
2020-Aug-05 13:25 184 1 gusting 6 16.1
2020-Aug-05 13:20 175 1 gusting 5 16.1
2020-Aug-05 13:15 171 0 gusting 5 16.1
2020-Aug-05 13:10 192 0 gusting 5 16.1
2020-Aug-05 13:05 190 0 gusting 2 16.1
2020-Aug-05 13:00 190 16.7
2020-Aug-05 12:55 190 16.7
2020-Aug-05 12:50 196 0 gusting 8 16.7
2020-Aug-05 12:45 190 0 gusting 8 16.7
2020-Aug-05 12:40 182 16.7
2020-Aug-05 12:35 360 1 gusting 11 17.2
2020-Aug-05 12:30 360 2 gusting 11 17.2
2020-Aug-05 12:25 360 2 gusting 6 17.2
2020-Aug-05 12:20 190 1 gusting 9 17.2
2020-Aug-05 12:15 196 4 gusting 9 17.2
2020-Aug-05 12:10 360 5 gusting 8 17.8
2020-Aug-05 12:05 360 1 gusting 8 17.8
2020-Aug-05 12:00 360 4 gusting 9 17.8
2020-Aug-05 11:55 189 2 gusting 10 18.3
2020-Aug-05 11:50 189 3 gusting 11 17.8
2020-Aug-05 11:45 157 4 gusting 11 17.8
2020-Aug-05 11:40 172 2 gusting 19 17.8
2020-Aug-05 11:35 182 6 gusting 19 17.8
2020-Aug-05 11:30 360 2 gusting 7 17.8
2020-Aug-05 11:25 183 3 gusting 7 18.3
2020-Aug-05 11:20 360 0 gusting 6 18.3
2020-Aug-05 11:15 197 3 gusting 10 17.8
2020-Aug-05 11:10 360 6 gusting 13 17.8
2020-Aug-05 11:05 207 5 gusting 13 18.3
2020-Aug-05 11:00 197 3 gusting 11 18.9
2020-Aug-05 10:55 168 2 gusting 15 19.4
2020-Aug-05 10:50 360 3 gusting 15 20.0
2020-Aug-05 10:45 360 4 gusting 9 20.0
2020-Aug-05 10:40 195 3 gusting 13 19.4
2020-Aug-05 10:35 194 5 gusting 10 18.9
2020-Aug-05 10:30 360 5 gusting 10 18.3
2020-Aug-05 10:25 205 6 gusting 12 18.9
2020-Aug-05 10:20 192 6 gusting 10 18.3
2020-Aug-05 10:15 206 3 gusting 12 18.3
2020-Aug-05 10:10 187 4 gusting 12 18.3
2020-Aug-05 10:05 192 3 gusting 8 18.3
2020-Aug-05 10:00 202 2 gusting 10 18.3
2020-Aug-05 09:55 360 5 gusting 10 18.3
2020-Aug-05 09:50 360 4 gusting 13 17.8
2020-Aug-05 09:45 360 5 gusting 13 17.8
2020-Aug-05 09:40 206 3 gusting 8 17.2
2020-Aug-05 09:35 360 4 gusting 12 17.2
2020-Aug-05 09:30 360 4 gusting 12 17.2
2020-Aug-05 09:25 181 5 gusting 11 17.2
2020-Aug-05 09:20 360 6 gusting 11 17.8
2020-Aug-05 09:15 360 4 gusting 13 17.8
2020-Aug-05 09:10 207 5 gusting 13 17.8
2020-Aug-05 09:05 191 5 gusting 11 17.2
2020-Aug-05 09:00 186 2 gusting 12 17.2
2020-Aug-05 08:55 205 3 gusting 12 17.8
2020-Aug-05 08:50 182 2 gusting 6 18.3
2020-Aug-05 08:45 360 2 gusting 8 18.3
2020-Aug-05 08:40 218 3 gusting 8 18.9
2020-Aug-05 08:35 205 2 gusting 9 18.3
2020-Aug-05 08:30 251 4 gusting 9 17.8
2020-Aug-05 08:25 209 1 gusting 7 17.2
2020-Aug-05 08:20 360 3 gusting 7 17.2
2020-Aug-05 08:15 360 0 gusting 9 17.2
2020-Aug-05 08:10 360 5 gusting 9 17.2
2020-Aug-05 08:05 360 0 gusting 10 16.7
2020-Aug-05 08:00 360 2 gusting 10 16.7
2020-Aug-05 07:55 217 5 gusting 11 16.7
2020-Aug-05 07:50 360 2 gusting 6 16.7
2020-Aug-05 07:45 217 1 gusting 5 16.1
2020-Aug-05 07:40 195 2 gusting 5 16.1
2020-Aug-05 07:35 198 1 gusting 5 15.6
2020-Aug-05 07:30 360 1 gusting 5 15.6
2020-Aug-05 07:25 360 1 gusting 6 15.6
2020-Aug-05 07:20 176 2 gusting 7 15.0
2020-Aug-05 07:15 199 3 gusting 7 15.0
2020-Aug-05 07:10 360 2 gusting 7 15.0
2020-Aug-05 07:06 189 3 gusting 9 15.0
2020-Aug-05 07:00 216 2 gusting 9 15.0
2020-Aug-05 06:55 213 1 gusting 6 15.0
2020-Aug-05 06:50 191 3 gusting 6 15.0
2020-Aug-05 06:45 179 2 gusting 6 15.0
2020-Aug-05 06:40 210 2 gusting 6 15.0
2020-Aug-05 06:35 360 0 gusting 6 14.4
2020-Aug-05 06:30 198 1 gusting 6 14.4
2020-Aug-05 06:25 196 0 gusting 5 13.9
2020-Aug-05 06:20 191 1 gusting 5 13.3
2020-Aug-05 06:15 195 0 gusting 4 13.3
2020-Aug-05 06:10 210 0 gusting 6 13.3
2020-Aug-05 06:05 360 2 gusting 6 13.3
2020-Aug-05 06:00 360 1 gusting 6 13.3
2020-Aug-05 05:55 360 0 gusting 4 13.9
2020-Aug-05 05:50 195 0 gusting 4 13.3
2020-Aug-05 05:45 186 12.2
2020-Aug-05 05:40 188 1 gusting 6 11.7
2020-Aug-05 05:35 198 0 gusting 4 11.7
2020-Aug-05 05:30 184 0 gusting 4 11.7
2020-Aug-05 05:25 187 1 gusting 4 11.7
2020-Aug-05 05:20 188 0 gusting 3 11.7
2020-Aug-05 05:15 190 0 gusting 3 11.7
2020-Aug-05 05:10 188 0 gusting 2 11.7
2020-Aug-05 05:05 189 0 gusting 3 11.7
2020-Aug-05 05:00 191 11.7
2020-Aug-05 04:55 191 0 gusting 4 11.7
2020-Aug-05 04:50 192 11.1
2020-Aug-05 04:45 192 0 gusting 4 11.1
2020-Aug-05 04:40 194 1 gusting 4 11.1
2020-Aug-05 04:35 185 0 gusting 3 11.1
2020-Aug-05 04:30 188 1 gusting 3 11.1
2020-Aug-05 04:25 193 0 gusting 4 11.1
2020-Aug-05 04:20 198 0 gusting 6 11.1
2020-Aug-05 04:15 198 0 gusting 6 11.1
2020-Aug-05 04:10 175 0 gusting 4 10.6
2020-Aug-05 04:05 196 0 gusting 4 10.6
2020-Aug-05 04:00 195 0 gusting 5 10.0
2020-Aug-05 03:55 190 0 gusting 4 10.0
2020-Aug-05 03:50 182 0 gusting 5 10.0
2020-Aug-05 03:45 193 9.4
2020-Aug-05 03:40 192 1 gusting 4 9.4
2020-Aug-05 03:35 184 0 gusting 6 9.4
2020-Aug-05 03:30 188 1 gusting 6 9.4
2020-Aug-05 03:25 185 0 gusting 5 9.4
2020-Aug-05 03:20 185 0 gusting 5 8.9
2020-Aug-05 03:15 186 0 gusting 3 8.9
2020-Aug-05 03:10 184 0 gusting 2 8.9
2020-Aug-05 03:06 186 8.9
2020-Aug-05 03:00 186 0 gusting 4 8.9
2020-Aug-05 02:55 187 8.9
2020-Aug-05 02:50 190 0 gusting 3 8.9
2020-Aug-05 02:45 192 8.9
2020-Aug-05 02:40 185 8.9
2020-Aug-05 02:35 187 1 gusting 6 8.9
2020-Aug-05 02:30 190 0 gusting 6 8.9
2020-Aug-05 02:25 194 0 gusting 5 8.9
2020-Aug-05 02:20 192 8.9
2020-Aug-05 02:15 191 0 gusting 3 8.9
2020-Aug-05 02:10 192 8.9
2020-Aug-05 02:05 194 9.4
2020-Aug-05 02:00 194 9.4
2020-Aug-05 01:55 194 9.4
2020-Aug-05 01:50 194 0 gusting 4 9.4
2020-Aug-05 01:45 196 9.4
2020-Aug-05 01:40 195 0 gusting 4 9.4
2020-Aug-05 01:35 200 0 gusting 3 9.4
2020-Aug-05 01:30 210 9.4
2020-Aug-05 01:25 210 0 gusting 4 9.4
2020-Aug-05 01:20 192 9.4
2020-Aug-05 01:15 188 9.4
2020-Aug-05 01:10 188 9.4
2020-Aug-05 01:06 190 9.4
2020-Aug-05 01:00 189 9.4
2020-Aug-05 00:55 189 10.0
2020-Aug-05 00:50 189 10.0
2020-Aug-05 00:45 190 10.6
2020-Aug-05 00:40 191 1 gusting 5 10.6
2020-Aug-05 00:35 196 0 gusting 6 10.6
2020-Aug-05 00:30 360 1 gusting 6 10.6
2020-Aug-05 00:25 197 0 gusting 4 10.6
2020-Aug-05 00:20 198 1 gusting 4 10.6
2020-Aug-05 00:15 198 1 gusting 4 10.6
2020-Aug-05 00:10 360 1 gusting 5 10.6
2020-Aug-05 00:05 360 1 gusting 5 10.0
2020-Aug-05 00:00 194 10.0
2020-Aug-04 23:55 195 10.6
2020-Aug-04 23:50 194 10.6
2020-Aug-04 23:45 194 10.6
2020-Aug-04 23:40 194 11.1
2020-Aug-04 23:35 195 11.1
2020-Aug-04 23:30 195 0 gusting 4 11.1
2020-Aug-04 23:25 193 1 gusting 4 11.1
2020-Aug-04 23:20 195 11.1
2020-Aug-04 23:15 193 0 gusting 4 11.7
2020-Aug-04 23:10 193 11.7
2020-Aug-04 23:05 192 11.7
2020-Aug-04 23:00 190 11.7
2020-Aug-04 22:55 193 11.7
2020-Aug-04 22:50 205 1 gusting 5 11.7
2020-Aug-04 22:45 215 0 gusting 4 11.1
2020-Aug-04 22:40 360 11.1
2020-Aug-04 22:35 217 11.1
2020-Aug-04 22:30 218 11.1
2020-Aug-04 22:25 360 10.6
2020-Aug-04 22:20 360 0 gusting 4 10.6
2020-Aug-04 22:15 215 1 gusting 4 10.6
2020-Aug-04 22:10 217 1 gusting 6 10.6
2020-Aug-04 22:05 238 2 gusting 6 10.6
2020-Aug-04 22:00 360 11.1
2020-Aug-04 21:55 218 11.1
2020-Aug-04 21:50 223 11.1
2020-Aug-04 21:45 360 0 gusting 5 11.7
2020-Aug-04 21:40 360 0 gusting 5 11.7
2020-Aug-04 21:35 360 0 gusting 2 11.7
2020-Aug-04 21:30 360 11.7
2020-Aug-04 21:25 208 1 gusting 4 11.7
2020-Aug-04 21:20 360 1 gusting 4 11.7
2020-Aug-04 21:15 360 0 gusting 2 11.1
2020-Aug-04 21:10 360 0 gusting 2 10.6
2020-Aug-04 21:05 360 0 gusting 3 10.6
2020-Aug-04 21:00 227 1 gusting 3 10.6
2020-Aug-04 20:55 246 0 gusting 7 11.1
2020-Aug-04 20:50 360 3 gusting 7 11.1
2020-Aug-04 20:45 247 1 gusting 6 11.1
2020-Aug-04 20:40 217 2 gusting 6 11.1
2020-Aug-04 20:35 360 0 gusting 5 10.6
2020-Aug-04 20:30 360 11.1
2020-Aug-04 20:25 360 11.1
2020-Aug-04 20:20 213 11.1
2020-Aug-04 20:15 360 11.1
2020-Aug-04 20:10 211 0 gusting 3 11.1
2020-Aug-04 20:05 211 0 gusting 2 11.1
2020-Aug-04 20:00 207 0 gusting 2 11.7
2020-Aug-04 19:55 198 11.7
2020-Aug-04 19:50 187 0 gusting 3 11.7
2020-Aug-04 19:45 172 11.7
2020-Aug-04 19:40 172 11.7
2020-Aug-04 19:35 172 12.2
2020-Aug-04 19:30 171 12.2
2020-Aug-04 19:25 169 0 gusting 3 12.2
2020-Aug-04 19:20 169 12.2
2020-Aug-04 19:15 168 0 gusting 4 12.8
2020-Aug-04 19:10 167 12.8
2020-Aug-04 19:05 166 0 gusting 4 12.8
2020-Aug-04 19:00 164 1 gusting 4 12.8
2020-Aug-04 18:55 118 13.3
2020-Aug-04 18:50 061 13.3
2020-Aug-04 18:45 061 13.3
2020-Aug-04 18:40 060 13.9
2020-Aug-04 18:35 060 13.9
2020-Aug-04 18:30 060 13.9
2020-Aug-04 18:25 060 13.9
2020-Aug-04 18:20 060 13.9
2020-Aug-04 18:15 060 13.9
2020-Aug-04 18:10 109 13.9
2020-Aug-04 18:05 109 13.9
2020-Aug-04 18:00 109 14.4
2020-Aug-04 17:55 109 14.4
2020-Aug-04 17:50 109 15.0
2020-Aug-04 17:45 109 15.0
2020-Aug-04 17:40 109 15.0
2020-Aug-04 17:35 109 15.0
2020-Aug-04 17:30 109 15.0
2020-Aug-04 17:25 109 15.0
2020-Aug-04 17:20 109 15.0
2020-Aug-04 17:15 102 15.6
2020-Aug-04 17:10 102 15.6
2020-Aug-04 17:06 102 15.0
2020-Aug-04 17:00 102 15.6
2020-Aug-04 16:55 102 15.6
2020-Aug-04 16:50 102 15.6
2020-Aug-04 16:45 102 15.6
2020-Aug-04 16:40 102 15.6
2020-Aug-04 16:35 102 15.6
2020-Aug-04 16:30 102 16.1
2020-Aug-04 16:25 102 16.1
2020-Aug-04 16:20 102 16.1
2020-Aug-04 16:15 102 0 gusting 2 16.1
2020-Aug-04 16:10 101 0 gusting 2 16.1
2020-Aug-04 16:05 098 0 gusting 2 16.1
2020-Aug-04 16:00 096 1 gusting 2 16.7
2020-Aug-04 15:55 091 1 gusting 2 16.7
2020-Aug-04 15:50 044 16.7
2020-Aug-04 15:45 034 16.7
2020-Aug-04 15:40 034 16.7
2020-Aug-04 15:35 034 16.7
2020-Aug-04 15:30 034 16.1
2020-Aug-04 15:25 034 16.1
2020-Aug-04 15:20 034 16.1
2020-Aug-04 15:15 034 15.6
2020-Aug-04 15:10 034 15.6
2020-Aug-04 15:05 034 15.6
2020-Aug-04 15:00 034 0 gusting 4 15.6